sensor_id;sensor_type;location;lat;lon;timestamp;pressure;altitude;pressure_sealevel;temperature;humidity
56182;BME280;51963;46.052;14.544;2023-05-03T00:01:00;98584.84;;;11.02;100.00
56182;BME280;51963;46.052;14.544;2023-05-03T00:03:27;98594.16;;;11.13;100.00
56182;BME280;51963;46.052;14.544;2023-05-03T00:05:52;98601.63;;;11.09;100.00
56182;BME280;51963;46.052;14.544;2023-05-03T00:08:18;98600.25;;;11.13;100.00
56182;BME280;51963;46.052;14.544;2023-05-03T00:10:44;98605.63;;;11.20;100.00
56182;BME280;51963;46.052;14.544;2023-05-03T00:13:09;98606.81;;;11.18;100.00
56182;BME280;51963;46.052;14.544;2023-05-03T00:15:35;98603.63;;;11.22;100.00
56182;BME280;51963;46.052;14.544;2023-05-03T00:18:01;98602.00;;;11.21;100.00
56182;BME280;51963;46.052;14.544;2023-05-03T00:20:27;98596.31;;;11.24;100.00
56182;BME280;51963;46.052;14.544;2023-05-03T00:22:53;98599.41;;;11.28;100.00
56182;BME280;51963;46.052;14.544;2023-05-03T00:25:18;98598.34;;;11.22;100.00
56182;BME280;51963;46.052;14.544;2023-05-03T00:27:44;98583.09;;;11.09;100.00
56182;BME280;51963;46.052;14.544;2023-05-03T00:30:10;98590.47;;;11.29;100.00
56182;BME280;51963;46.052;14.544;2023-05-03T00:32:36;98587.38;;;11.25;100.00
56182;BME280;51963;46.052;14.544;2023-05-03T00:35:02;98583.78;;;11.33;100.00
56182;BME280;51963;46.052;14.544;2023-05-03T00:37:30;98569.84;;;11.24;100.00
56182;BME280;51963;46.052;14.544;2023-05-03T00:39:57;98584.63;;;11.34;100.00
56182;BME280;51963;46.052;14.544;2023-05-03T00:42:25;98591.03;;;11.24;100.00
56182;BME280;51963;46.052;14.544;2023-05-03T00:44:50;98586.66;;;11.17;100.00
56182;BME280;51963;46.052;14.544;2023-05-03T00:47:16;98579.66;;;11.09;100.00
56182;BME280;51963;46.052;14.544;2023-05-03T00:49:42;98586.38;;;11.11;100.00
56182;BME280;51963;46.052;14.544;2023-05-03T00:52:11;98584.06;;;11.02;100.00
56182;BME280;51963;46.052;14.544;2023-05-03T00:54:37;98571.63;;;11.02;100.00
56182;BME280;51963;46.052;14.544;2023-05-03T00:57:03;98574.75;;;11.06;100.00
56182;BME280;51963;46.052;14.544;2023-05-03T00:59:31;98587.22;;;11.12;100.00
56182;BME280;51963;46.052;14.544;2023-05-03T01:01:57;98590.41;;;11.22;100.00
56182;BME280;51963;46.052;14.544;2023-05-03T01:04:23;98586.66;;;11.17;100.00
56182;BME280;51963;46.052;14.544;2023-05-03T01:07:19;98580.50;;;11.31;100.00
56182;BME280;51963;46.052;14.544;2023-05-03T01:17:19;98575.25;;;11.16;100.00
56182;BME280;51963;46.052;14.544;2023-05-03T01:19:54;98575.06;;;11.18;100.00
56182;BME280;51963;46.052;14.544;2023-05-03T01:22:25;98591.78;;;11.18;100.00
56182;BME280;51963;46.052;14.544;2023-05-03T01:25:11;98589.03;;;11.11;100.00
56182;BME280;51963;46.052;14.544;2023-05-03T01:27:39;98587.59;;;11.09;100.00
56182;BME280;51963;46.052;14.544;2023-05-03T01:30:09;98582.84;;;11.04;100.00
56182;BME280;51963;46.052;14.544;2023-05-03T01:35:29;98588.41;;;11.09;100.00
56182;BME280;51963;46.052;14.544;2023-05-03T01:38:00;98579.75;;;11.00;100.00
56182;BME280;51963;46.052;14.544;2023-05-03T01:40:28;98590.88;;;11.11;100.00
56182;BME280;51963;46.052;14.544;2023-05-03T01:42:55;98593.31;;;11.12;100.00
56182;BME280;51963;46.052;14.544;2023-05-03T01:45:21;98588.88;;;11.13;100.00
56182;BME280;51963;46.052;14.544;2023-05-03T01:47:47;98595.06;;;11.20;100.00
56182;BME280;51963;46.052;14.544;2023-05-03T01:50:13;98592.41;;;11.20;100.00
56182;BME280;51963;46.052;14.544;2023-05-03T01:52:39;98575.75;;;11.05;100.00
56182;BME280;51963;46.052;14.544;2023-05-03T01:55:08;98588.19;;;11.26;100.00
56182;BME280;51963;46.052;14.544;2023-05-03T01:57:33;98597.44;;;11.15;100.00
56182;BME280;51963;46.052;14.544;2023-05-03T01:59:59;98590.34;;;11.00;100.00
56182;BME280;51963;46.052;14.544;2023-05-03T02:02:25;98587.81;;;10.92;100.00
56182;BME280;51963;46.052;14.544;2023-05-03T02:04:50;98591.00;;;10.88;100.00
56182;BME280;51963;46.052;14.544;2023-05-03T02:07:17;98593.38;;;10.82;100.00
56182;BME280;51963;46.052;14.544;2023-05-03T02:09:44;98593.66;;;10.73;100.00
56182;BME280;51963;46.052;14.544;2023-05-03T02:12:10;98584.19;;;10.63;100.00
56182;BME280;51963;46.052;14.544;2023-05-03T02:14:36;98587.09;;;10.68;100.00
56182;BME280;51963;46.052;14.544;2023-05-03T02:17:01;98581.34;;;10.65;100.00
56182;BME280;51963;46.052;14.544;2023-05-03T02:19:27;98587.53;;;10.72;100.00
56182;BME280;51963;46.052;14.544;2023-05-03T02:21:53;98584.34;;;10.77;100.00
56182;BME280;51963;46.052;14.544;2023-05-03T02:24:19;98588.72;;;10.84;100.00
56182;BME280;51963;46.052;14.544;2023-05-03T02:26:44;98586.91;;;10.85;100.00
56182;BME280;51963;46.052;14.544;2023-05-03T02:29:10;98584.34;;;10.77;100.00
56182;BME280;51963;46.052;14.544;2023-05-03T02:31:36;98547.53;;;10.60;100.00
56182;BME280;51963;46.052;14.544;2023-05-03T02:34:02;98579.50;;;10.80;100.00
56182;BME280;51963;46.052;14.544;2023-05-03T02:36:28;98577.06;;;10.79;100.00
56182;BME280;51963;46.052;14.544;2023-05-03T02:38:55;98575.06;;;10.81;100.00
56182;BME280;51963;46.052;14.544;2023-05-03T02:41:21;98568.38;;;10.85;100.00
56182;BME280;51963;46.052;14.544;2023-05-03T02:43:47;98554.00;;;10.73;100.00
56182;BME280;51963;46.052;14.544;2023-05-03T02:46:13;98569.22;;;10.70;100.00
56182;BME280;51963;46.052;14.544;2023-05-03T02:48:38;98575.31;;;10.71;100.00
56182;BME280;51963;46.052;14.544;2023-05-03T02:51:04;98569.59;;;10.67;100.00
56182;BME280;51963;46.052;14.544;2023-05-03T02:53:30;98568.91;;;10.80;100.00
56182;BME280;51963;46.052;14.544;2023-05-03T02:55:59;98557.75;;;10.63;100.00
56182;BME280;51963;46.052;14.544;2023-05-03T02:58:25;98572.13;;;10.76;100.00
56182;BME280;51963;46.052;14.544;2023-05-03T03:00:51;98559.28;;;10.73;100.00
56182;BME280;51963;46.052;14.544;2023-05-03T03:03:17;98575.50;;;10.69;100.00
56182;BME280;51963;46.052;14.544;2023-05-03T03:05:43;98563.09;;;10.70;100.00
56182;BME280;51963;46.052;14.544;2023-05-03T03:08:08;98576.31;;;10.85;100.00
56182;BME280;51963;46.052;14.544;2023-05-03T03:10:35;98573.03;;;10.83;100.00
56182;BME280;51963;46.052;14.544;2023-05-03T03:13:01;98582.88;;;10.89;100.00
56182;BME280;51963;46.052;14.544;2023-05-03T03:15:33;98578.13;;;10.99;100.00
56182;BME280;51963;46.052;14.544;2023-05-03T03:17:59;98575.06;;;10.81;100.00
56182;BME280;51963;46.052;14.544;2023-05-03T03:20:25;98576.69;;;10.82;100.00
56182;BME280;51963;46.052;14.544;2023-05-03T03:22:51;98573.78;;;10.77;100.00
56182;BME280;51963;46.052;14.544;2023-05-03T03:25:19;98579.22;;;10.75;100.00
56182;BME280;51963;46.052;14.544;2023-05-03T03:27:45;98578.22;;;10.76;100.00
56182;BME280;51963;46.052;14.544;2023-05-03T03:30:11;98565.84;;;10.62;100.00
56182;BME280;51963;46.052;14.544;2023-05-03T03:32:46;98565.38;;;10.58;100.00
56182;BME280;51963;46.052;14.544;2023-05-03T03:35:23;98578.88;;;10.63;100.00
56182;BME280;51963;46.052;14.544;2023-05-03T03:37:49;98581.59;;;10.55;100.00
56182;BME280;51963;46.052;14.544;2023-05-03T03:40:16;98583.22;;;10.56;100.00
56182;BME280;51963;46.052;14.544;2023-05-03T03:42:43;98586.88;;;10.55;100.00
56182;BME280;51963;46.052;14.544;2023-05-03T03:45:09;98586.50;;;10.58;100.00
56182;BME280;51963;46.052;14.544;2023-05-03T03:47:36;98563.47;;;10.52;100.00
56182;BME280;51963;46.052;14.544;2023-05-03T03:50:02;98584.44;;;10.53;100.00
56182;BME280;51963;46.052;14.544;2023-05-03T03:52:29;98587.47;;;10.65;100.00
56182;BME280;51963;46.052;14.544;2023-05-03T03:54:58;98582.72;;;10.76;100.00
56182;BME280;51963;46.052;14.544;2023-05-03T03:57:24;98588.81;;;10.76;100.00
56182;BME280;51963;46.052;14.544;2023-05-03T03:59:51;98586.53;;;10.73;100.00
56182;BME280;51963;46.052;14.544;2023-05-03T04:02:16;98585.44;;;10.67;100.00
56182;BME280;51963;46.052;14.544;2023-05-03T04:04:42;98580.16;;;10.67;100.00
56182;BME280;51963;46.052;14.544;2023-05-03T04:07:08;98589.91;;;10.67;100.00
56182;BME280;51963;46.052;14.544;2023-05-03T04:09:34;98598.53;;;10.46;100.00
56182;BME280;51963;46.052;14.544;2023-05-03T04:12:00;98568.44;;;10.32;100.00
56182;BME280;51963;46.052;14.544;2023-05-03T04:14:31;98597.09;;;10.43;100.00
56182;BME280;51963;46.052;14.544;2023-05-03T04:16:57;98598.28;;;10.55;100.00
56182;BME280;51963;46.052;14.544;2023-05-03T04:19:23;98594.66;;;10.71;100.00
56182;BME280;51963;46.052;14.544;2023-05-03T04:21:50;98598.66;;;10.82;100.00
56182;BME280;51963;46.052;14.544;2023-05-03T04:24:21;98591.72;;;10.96;100.00
56182;BME280;51963;46.052;14.544;2023-05-03T04:26:48;98589.81;;;10.90;100.00
56182;BME280;51963;46.052;14.544;2023-05-03T04:29:21;98593.09;;;10.77;100.00
56182;BME280;51963;46.052;14.544;2023-05-03T04:31:48;98591.28;;;10.78;100.00
56182;BME280;51963;46.052;14.544;2023-05-03T04:34:14;98585.44;;;10.67;100.00
56182;BME280;51963;46.052;14.544;2023-05-03T04:36:46;98605.41;;;10.70;100.00
56182;BME280;51963;46.052;14.544;2023-05-03T04:39:12;98603.31;;;10.65;100.00
56182;BME280;51963;46.052;14.544;2023-05-03T04:41:40;98599.50;;;10.83;100.00
56182;BME280;51963;46.052;14.544;2023-05-03T04:44:07;98596.00;;;10.82;100.00
56182;BME280;51963;46.052;14.544;2023-05-03T04:46:33;98602.78;;;10.85;100.00
56182;BME280;51963;46.052;14.544;2023-05-03T04:48:59;98599.13;;;10.86;100.00
56182;BME280;51963;46.052;14.544;2023-05-03T04:51:24;98604.78;;;10.83;100.00
56182;BME280;51963;46.052;14.544;2023-05-03T04:53:52;98597.94;;;10.74;100.00
56182;BME280;51963;46.052;14.544;2023-05-03T04:56:20;98610.97;;;10.90;100.00
56182;BME280;51963;46.052;14.544;2023-05-03T04:58:52;98604.47;;;10.93;100.00
56182;BME280;51963;46.052;14.544;2023-05-03T05:01:19;98614.25;;;10.92;100.00
56182;BME280;51963;46.052;14.544;2023-05-03T05:03:54;98591.28;;;10.78;100.00
56182;BME280;51963;46.052;14.544;2023-05-03T05:06:26;98627.38;;;11.00;100.00
56182;BME280;51963;46.052;14.544;2023-05-03T05:08:52;98624.69;;;11.15;100.00
56182;BME280;51963;46.052;14.544;2023-05-03T05:11:17;98629.25;;;11.22;100.00
56182;BME280;51963;46.052;14.544;2023-05-03T05:13:46;98633.44;;;11.31;100.00
56182;BME280;51963;46.052;14.544;2023-05-03T05:16:12;98633.00;;;11.27;100.00
56182;BME280;51963;46.052;14.544;2023-05-03T05:18:41;98639.94;;;11.28;100.00
56182;BME280;51963;46.052;14.544;2023-05-03T05:21:11;98644.22;;;11.29;100.00
56182;BME280;51963;46.052;14.544;2023-05-03T05:23:39;98633.38;;;11.24;100.00
56182;BME280;51963;46.052;14.544;2023-05-03T05:26:04;98642.59;;;11.28;100.00
56182;BME280;51963;46.052;14.544;2023-05-03T05:28:31;98638.03;;;11.22;100.00
56182;BME280;51963;46.052;14.544;2023-05-03T05:30:58;98647.88;;;11.28;100.00
56182;BME280;51963;46.052;14.544;2023-05-03T05:33:24;98652.75;;;11.47;100.00
56182;BME280;51963;46.052;14.544;2023-05-03T05:35:51;98644.19;;;11.44;100.00
56182;BME280;51963;46.052;14.544;2023-05-03T05:38:19;98652.22;;;11.51;100.00
56182;BME280;51963;46.052;14.544;2023-05-03T05:40:45;98649.25;;;11.61;100.00
56182;BME280;51963;46.052;14.544;2023-05-03T05:43:11;98646.31;;;11.71;100.00
56182;BME280;51963;46.052;14.544;2023-05-03T05:45:42;98651.72;;;11.84;100.00
56182;BME280;51963;46.052;14.544;2023-05-03T05:48:08;98639.25;;;11.78;100.00
56182;BME280;51963;46.052;14.544;2023-05-03T05:50:34;98657.53;;;11.95;100.00
56182;BME280;51963;46.052;14.544;2023-05-03T05:53:06;98652.78;;;11.90;100.00
56182;BME280;51963;46.052;14.544;2023-05-03T05:55:38;98661.69;;;11.82;100.00
56182;BME280;51963;46.052;14.544;2023-05-03T05:58:04;98655.28;;;11.92;100.00
56182;BME280;51963;46.052;14.544;2023-05-03T06:00:37;98664.63;;;12.09;100.00
56182;BME280;51963;46.052;14.544;2023-05-03T06:03:04;98660.88;;;12.25;100.00
56182;BME280;51963;46.052;14.544;2023-05-03T06:05:29;98670.28;;;12.28;100.00
56182;BME280;51963;46.052;14.544;2023-05-03T06:07:55;98659.03;;;12.47;100.00
56182;BME280;51963;46.052;14.544;2023-05-03T06:10:21;98664.81;;;12.58;100.00
56182;BME280;51963;46.052;14.544;2023-05-03T06:12:50;98668.88;;;12.54;100.00
56182;BME280;51963;46.052;14.544;2023-05-03T06:15:20;98665.09;;;12.41;100.00
56182;BME280;51963;46.052;14.544;2023-05-03T06:17:49;98670.22;;;12.71;100.00
56182;BME280;51963;46.052;14.544;2023-05-03T06:20:16;98671.00;;;12.72;100.00
56182;BME280;51963;46.052;14.544;2023-05-03T06:22:43;98681.16;;;12.97;100.00
56182;BME280;51963;46.052;14.544;2023-05-03T06:25:10;98679.44;;;13.17;100.00
56182;BME280;51963;46.052;14.544;2023-05-03T06:27:38;98683.34;;;13.57;100.00
56182;BME280;51963;46.052;14.544;2023-05-03T06:30:06;98680.84;;;13.55;100.00
56182;BME280;51963;46.052;14.544;2023-05-03T06:32:33;98678.28;;;13.75;100.00
56182;BME280;51963;46.052;14.544;2023-05-03T06:34:58;98687.72;;;14.05;100.00
56182;BME280;51963;46.052;14.544;2023-05-03T06:37:25;98678.50;;;14.01;100.00
56182;BME280;51963;46.052;14.544;2023-05-03T06:39:51;98686.72;;;14.33;100.00
56182;BME280;51963;46.052;14.544;2023-05-03T06:42:18;98675.88;;;14.21;100.00
56182;BME280;51963;46.052;14.544;2023-05-03T06:44:44;98677.09;;;14.59;100.00
56182;BME280;51963;46.052;14.544;2023-05-03T06:47:12;98681.00;;;14.29;100.00
56182;BME280;51963;46.052;14.544;2023-05-03T06:49:37;98682.22;;;14.40;100.00
56182;BME280;51963;46.052;14.544;2023-05-03T06:52:03;98690.00;;;14.75;100.00
56182;BME280;51963;46.052;14.544;2023-05-03T06:54:32;98676.28;;;14.51;100.00
56182;BME280;51963;46.052;14.544;2023-05-03T06:56:58;98690.00;;;14.75;100.00
56182;BME280;51963;46.052;14.544;2023-05-03T06:59:23;98689.16;;;14.81;100.00
56182;BME280;51963;46.052;14.544;2023-05-03T07:01:51;98694.91;;;14.85;100.00
56182;BME280;51963;46.052;14.544;2023-05-03T07:04:16;98695.72;;;14.59;100.00
56182;BME280;51963;46.052;14.544;2023-05-03T07:06:42;98693.88;;;14.93;100.00
56182;BME280;51963;46.052;14.544;2023-05-03T07:09:08;98698.53;;;15.04;100.00
56182;BME280;51963;46.052;14.544;2023-05-03T07:11:34;98682.56;;;15.04;100.00
56182;BME280;51963;46.052;14.544;2023-05-03T07:14:03;98684.16;;;15.25;100.00
56182;BME280;51963;46.052;14.544;2023-05-03T07:16:29;98693.13;;;15.31;100.00
56182;BME280;51963;46.052;14.544;2023-05-03T07:18:55;98685.63;;;15.60;100.00
56182;BME280;51963;46.052;14.544;2023-05-03T07:21:20;98689.19;;;15.86;100.00
56182;BME280;51963;46.052;14.544;2023-05-03T07:23:46;98686.94;;;15.96;100.00
56182;BME280;51963;46.052;14.544;2023-05-03T07:26:12;98683.06;;;15.92;100.00
56182;BME280;51963;46.052;14.544;2023-05-03T07:28:37;98686.84;;;15.64;100.00
56182;BME280;51963;46.052;14.544;2023-05-03T07:31:03;98672.84;;;15.30;100.00
56182;BME280;51963;46.052;14.544;2023-05-03T07:33:29;98684.84;;;15.60;100.00
56182;BME280;51963;46.052;14.544;2023-05-03T07:35:56;98690.63;;;15.95;98.35
56182;BME280;51963;46.052;14.544;2023-05-03T07:38:22;98683.06;;;15.86;100.00
56182;BME280;51963;46.052;14.544;2023-05-03T07:40:47;98682.34;;;16.36;100.00
56182;BME280;51963;46.052;14.544;2023-05-03T07:43:13;98692.78;;;16.63;100.00
56182;BME280;51963;46.052;14.544;2023-05-03T07:45:41;98691.78;;;16.82;100.00
56182;BME280;51963;46.052;14.544;2023-05-03T07:48:06;98694.31;;;16.77;90.47
56182;BME280;51963;46.052;14.544;2023-05-03T07:50:32;98697.88;;;16.90;93.63
56182;BME280;51963;46.052;14.544;2023-05-03T07:52:58;98690.88;;;16.70;88.34
56182;BME280;51963;46.052;14.544;2023-05-03T07:55:24;98690.88;;;16.45;93.92
56182;BME280;51963;46.052;14.544;2023-05-03T07:57:50;98685.81;;;16.62;94.37
56182;BME280;51963;46.052;14.544;2023-05-03T08:00:17;98690.88;;;16.70;92.73
56182;BME280;51963;46.052;14.544;2023-05-03T08:02:43;98694.59;;;16.69;93.59
56182;BME280;51963;46.052;14.544;2023-05-03T08:05:09;98689.78;;;16.96;97.70
56182;BME280;51963;46.052;14.544;2023-05-03T08:07:35;98697.63;;;16.91;92.29
56182;BME280;51963;46.052;14.544;2023-05-03T08:10:01;98684.53;;;16.90;91.41
56182;BME280;51963;46.052;14.544;2023-05-03T08:12:27;98692.03;;;16.55;90.40
56182;BME280;51963;46.052;14.544;2023-05-03T08:14:54;98700.53;;;16.71;90.00
56182;BME280;51963;46.052;14.544;2023-05-03T08:17:20;98699.91;;;16.69;95.55
56182;BME280;51963;46.052;14.544;2023-05-03T08:19:48;98703.34;;;16.25;97.65
56182;BME280;51963;46.052;14.544;2023-05-03T08:22:16;98705.38;;;16.55;96.44
56182;BME280;51963;46.052;14.544;2023-05-03T08:24:42;98706.19;;;16.81;96.26
56182;BME280;51963;46.052;14.544;2023-05-03T08:27:08;98709.00;;;16.86;95.13
56182;BME280;51963;46.052;14.544;2023-05-03T08:29:35;98706.34;;;16.86;95.86
56182;BME280;51963;46.052;14.544;2023-05-03T08:32:04;98709.03;;;17.42;87.26
56182;BME280;51963;46.052;14.544;2023-05-03T08:34:33;98703.84;;;17.29;86.18
56182;BME280;51963;46.052;14.544;2023-05-03T08:36:58;98696.75;;;17.23;87.73
56182;BME280;51963;46.052;14.544;2023-05-03T08:39:27;98706.38;;;17.24;87.17
56182;BME280;51963;46.052;14.544;2023-05-03T08:41:53;98702.78;;;16.93;89.05
56182;BME280;51963;46.052;14.544;2023-05-03T08:44:20;98710.00;;;16.67;88.86
56182;BME280;51963;46.052;14.544;2023-05-03T08:46:50;98710.91;;;16.79;90.46
56182;BME280;51963;46.052;14.544;2023-05-03T08:49:19;98711.19;;;16.71;89.25
56182;BME280;51963;46.052;14.544;2023-05-03T08:51:46;98714.69;;;16.90;88.77
56182;BME280;51963;46.052;14.544;2023-05-03T08:54:13;98719.59;;;17.00;90.42
56182;BME280;51963;46.052;14.544;2023-05-03T08:56:45;98723.69;;;16.96;89.78
56182;BME280;51963;46.052;14.544;2023-05-03T08:59:12;98720.63;;;16.92;92.87
56182;BME280;51963;46.052;14.544;2023-05-03T09:01:39;98716.38;;;16.66;91.63
56182;BME280;51963;46.052;14.544;2023-05-03T09:04:06;98719.09;;;16.59;91.95
56182;BME280;51963;46.052;14.544;2023-05-03T09:06:33;98725.06;;;16.80;94.08
56182;BME280;51963;46.052;14.544;2023-05-03T09:09:00;98718.31;;;16.77;92.25
56182;BME280;51963;46.052;14.544;2023-05-03T09:11:30;98701.16;;;16.92;92.35
56182;BME280;51963;46.052;14.544;2023-05-03T09:14:08;98702.44;;;17.26;93.23
56182;BME280;51963;46.052;14.544;2023-05-03T09:16:34;98719.44;;;17.51;90.16
56182;BME280;51963;46.052;14.544;2023-05-03T09:19:02;98720.63;;;17.55;92.05
56182;BME280;51963;46.052;14.544;2023-05-03T09:21:29;98725.38;;;17.53;86.19
56182;BME280;51963;46.052;14.544;2023-05-03T09:23:58;98728.72;;;17.29;89.84
56182;BME280;51963;46.052;14.544;2023-05-03T09:26:33;98736.34;;;17.07;89.76
56182;BME280;51963;46.052;14.544;2023-05-03T09:29:03;98729.47;;;16.93;88.33
56182;BME280;51963;46.052;14.544;2023-05-03T09:31:31;98725.75;;;17.19;88.41
56182;BME280;51963;46.052;14.544;2023-05-03T09:34:00;98727.38;;;17.20;87.39
56182;BME280;51963;46.052;14.544;2023-05-03T09:36:26;98730.72;;;16.90;86.89
56182;BME280;51963;46.052;14.544;2023-05-03T09:38:53;98731.25;;;16.80;89.61
56182;BME280;51963;46.052;14.544;2023-05-03T09:41:28;98733.31;;;17.22;84.35
56182;BME280;51963;46.052;14.544;2023-05-03T09:43:54;98700.84;;;16.81;85.69
56182;BME280;51963;46.052;14.544;2023-05-03T09:46:22;98730.63;;;17.04;84.29
56182;BME280;51963;46.052;14.544;2023-05-03T09:48:51;98724.81;;;16.63;86.85
56182;BME280;51963;46.052;14.544;2023-05-03T09:51:20;98727.66;;;16.68;87.34
56182;BME280;51963;46.052;14.544;2023-05-03T09:53:47;98721.13;;;16.64;88.83
56182;BME280;51963;46.052;14.544;2023-05-03T09:56:13;98728.47;;;16.43;92.23
56182;BME280;51963;46.052;14.544;2023-05-03T09:58:41;98732.31;;;16.72;89.33
56182;BME280;51963;46.052;14.544;2023-05-03T10:01:09;98717.59;;;16.89;90.38
56182;BME280;51963;46.052;14.544;2023-05-03T10:03:42;98722.28;;;16.93;87.86
56182;BME280;51963;46.052;14.544;2023-05-03T10:06:21;98717.50;;;17.02;87.18
56182;BME280;51963;46.052;14.544;2023-05-03T10:08:52;98716.63;;;17.08;80.51
56182;BME280;51963;46.052;14.544;2023-05-03T10:11:24;98720.09;;;17.46;83.64
56182;BME280;51963;46.052;14.544;2023-05-03T10:13:51;98704.81;;;16.97;79.17
56182;BME280;51963;46.052;14.544;2023-05-03T10:16:22;98714.97;;;17.44;77.91
56182;BME280;51963;46.052;14.544;2023-05-03T10:18:58;98717.22;;;17.10;83.36
56182;BME280;51963;46.052;14.544;2023-05-03T10:21:37;98711.13;;;17.40;81.42
56182;BME280;51963;46.052;14.544;2023-05-03T10:24:11;98712.13;;;17.77;77.85
56182;BME280;51963;46.052;14.544;2023-05-03T10:26:44;98699.41;;;17.72;79.73
56182;BME280;51963;46.052;14.544;2023-05-03T10:31:59;98711.09;;;17.89;78.66
56182;BME280;51963;46.052;14.544;2023-05-03T10:34:30;98704.63;;;17.67;77.21
56182;BME280;51963;46.052;14.544;2023-05-03T10:37:17;98678.03;;;17.41;76.09
56182;BME280;51963;46.052;14.544;2023-05-03T10:39:43;98709.19;;;17.48;75.87
56182;BME280;51963;46.052;14.544;2023-05-03T10:42:09;98705.81;;;17.52;77.24
56182;BME280;51963;46.052;14.544;2023-05-03T10:44:50;98710.84;;;17.30;74.15
56182;BME280;51963;46.052;14.544;2023-05-03T10:47:18;98706.09;;;17.13;79.21
56182;BME280;51963;46.052;14.544;2023-05-03T10:49:44;98705.19;;;17.01;75.45
56182;BME280;51963;46.052;14.544;2023-05-03T10:55:12;98697.19;;;17.20;75.05
56182;BME280;51963;46.052;14.544;2023-05-03T10:57:40;98687.13;;;16.96;78.94
56182;BME280;51963;46.052;14.544;2023-05-03T11:05:49;98702.44;;;17.08;73.75
56182;BME280;51963;46.052;14.544;2023-05-03T11:08:18;98697.75;;;17.40;76.95
56182;BME280;51963;46.052;14.544;2023-05-03T11:10:45;98700.00;;;17.25;78.48
56182;BME280;51963;46.052;14.544;2023-05-03T11:13:11;98698.22;;;17.19;73.85
56182;BME280;51963;46.052;14.544;2023-05-03T11:15:37;98704.44;;;17.31;74.13
56182;BME280;51963;46.052;14.544;2023-05-03T11:18:05;98696.56;;;17.36;75.48
56182;BME280;51963;46.052;14.544;2023-05-03T11:20:31;98697.75;;;17.40;70.60
56182;BME280;51963;46.052;14.544;2023-05-03T11:22:58;98702.97;;;17.17;74.37
56182;BME280;51963;46.052;14.544;2023-05-03T11:25:23;98682.69;;;17.09;74.31
56182;BME280;51963;46.052;14.544;2023-05-03T11:27:49;98700.88;;;17.00;75.33
56182;BME280;51963;46.052;14.544;2023-05-03T11:30:15;98698.88;;;17.14;72.84
56182;BME280;51963;46.052;14.544;2023-05-03T11:32:42;98696.13;;;17.02;73.04
56182;BME280;51963;46.052;14.544;2023-05-03T11:35:09;98696.13;;;17.02;75.16
56182;BME280;51963;46.052;14.544;2023-05-03T11:37:37;98698.81;;;17.02;76.76
56182;BME280;51963;46.052;14.544;2023-05-03T11:40:04;98694.16;;;16.91;76.94
56182;BME280;51963;46.052;14.544;2023-05-03T11:42:31;98682.72;;;16.65;74.39
56182;BME280;51963;46.052;14.544;2023-05-03T11:44:56;98685.91;;;16.92;76.96
56182;BME280;51963;46.052;14.544;2023-05-03T11:47:23;98704.59;;;17.18;76.37
56182;BME280;51963;46.052;14.544;2023-05-03T11:49:52;98696.88;;;17.09;75.30
56182;BME280;51963;46.052;14.544;2023-05-03T11:52:26;98696.78;;;17.16;76.32
56182;BME280;51963;46.052;14.544;2023-05-03T11:54:53;98658.84;;;16.89;78.53
56182;BME280;51963;46.052;14.544;2023-05-03T11:57:24;98699.69;;;17.33;76.24
56182;BME280;51963;46.052;14.544;2023-05-03T11:59:49;98695.31;;;17.20;77.68
56182;BME280;51963;46.052;14.544;2023-05-03T12:02:15;98698.72;;;17.27;75.63
56182;BME280;51963;46.052;14.544;2023-05-03T12:04:44;98693.94;;;17.48;75.29
56182;BME280;51963;46.052;14.544;2023-05-03T12:07:13;98697.75;;;17.59;79.17
56182;BME280;51963;46.052;14.544;2023-05-03T12:09:40;98695.97;;;17.83;79.05
56182;BME280;51963;46.052;14.544;2023-05-03T12:12:05;98693.66;;;17.87;74.71
56182;BME280;51963;46.052;14.544;2023-05-03T12:14:57;98690.88;;;17.94;75.12
56182;BME280;51963;46.052;14.544;2023-05-03T12:17:39;98691.31;;;17.79;75.91
56182;BME280;51963;46.052;14.544;2023-05-03T12:20:16;98686.56;;;17.81;72.03
56182;BME280;51963;46.052;14.544;2023-05-03T12:22:42;98685.56;;;17.63;73.33
56182;BME280;51963;46.052;14.544;2023-05-03T12:25:11;98686.81;;;17.91;74.99
56182;BME280;51963;46.052;14.544;2023-05-03T12:27:36;98691.22;;;17.55;71.86
56182;BME280;51963;46.052;14.544;2023-05-03T12:30:02;98687.94;;;17.83;72.84
56182;BME280;51963;46.052;14.544;2023-05-03T12:32:28;98686.19;;;18.08;75.13
56182;BME280;51963;46.052;14.544;2023-05-03T12:34:55;98686.53;;;18.11;73.79
56182;BME280;51963;46.052;14.544;2023-05-03T12:37:21;98683.22;;;17.97;73.96
56182;BME280;51963;46.052;14.544;2023-05-03T12:39:46;98688.06;;;17.88;75.15
56182;BME280;51963;46.052;14.544;2023-05-03T12:42:12;98684.38;;;17.59;72.84
56182;BME280;51963;46.052;14.544;2023-05-03T12:44:41;98682.00;;;17.51;74.67
56182;BME280;51963;46.052;14.544;2023-05-03T12:47:09;98690.06;;;17.32;72.69
56182;BME280;51963;46.052;14.544;2023-05-03T12:49:35;98683.59;;;17.70;72.47
56182;BME280;51963;46.052;14.544;2023-05-03T12:52:01;98679.47;;;17.86;73.27
56182;BME280;51963;46.052;14.544;2023-05-03T12:54:26;98678.19;;;17.58;72.26
56182;BME280;51963;46.052;14.544;2023-05-03T12:56:55;98671.09;;;17.83;71.70
56182;BME280;51963;46.052;14.544;2023-05-03T12:59:20;98672.53;;;17.97;69.16
56182;BME280;51963;46.052;14.544;2023-05-03T13:01:46;98668.50;;;17.76;71.71
56182;BME280;51963;46.052;14.544;2023-05-03T13:04:13;98668.69;;;17.63;72.37
56182;BME280;51963;46.052;14.544;2023-05-03T13:06:40;98669.28;;;17.95;70.67